sensor_id;sensor_type;location;lat;lon;timestamp;pressure;altitude;pressure_sealevel;temperature;humidity
73679;BME280;61978;52.742;16.962;2022-09-28T00:01:13;99213.38;;;12.88;100.00
73679;BME280;61978;52.742;16.962;2022-09-28T00:03:38;99215.30;;;12.76;100.00
73679;BME280;61978;52.742;16.962;2022-09-28T00:06:08;99214.95;;;12.72;100.00
73679;BME280;61978;52.742;16.962;2022-09-28T00:08:36;99208.34;;;12.66;100.00
73679;BME280;61978;52.742;16.962;2022-09-28T00:11:05;99208.91;;;12.68;100.00
73679;BME280;61978;52.742;16.962;2022-09-28T00:13:33;99212.58;;;12.50;100.00
73679;BME280;61978;52.742;16.962;2022-09-28T00:16:07;99207.91;;;12.46;100.00
73679;BME280;61978;52.742;16.962;2022-09-28T00:18:34;99209.63;;;12.38;100.00
73679;BME280;61978;52.742;16.962;2022-09-28T00:21:04;99206.71;;;12.16;100.00
73679;BME280;61978;52.742;16.962;2022-09-28T00:23:32;99186.98;;;12.24;100.00
73679;BME280;61978;52.742;16.962;2022-09-28T00:26:03;99201.75;;;12.10;100.00
73679;BME280;61978;52.742;16.962;2022-09-28T00:28:31;99194.08;;;12.16;100.00
73679;BME280;61978;52.742;16.962;2022-09-28T00:31:00;99207.02;;;12.17;100.00
73679;BME280;61978;52.742;16.962;2022-09-28T00:33:29;99241.19;;;12.16;100.00
73679;BME280;61978;52.742;16.962;2022-09-28T00:35:58;99210.14;;;13.28;100.00
73679;BME280;61978;52.742;16.962;2022-09-28T00:38:35;99241.69;;;11.81;100.00
73679;BME280;61978;52.742;16.962;2022-09-28T00:41:02;99217.21;;;11.71;100.00
73679;BME280;61978;52.742;16.962;2022-09-28T00:43:32;99198.69;;;11.72;100.00
73679;BME280;61978;52.742;16.962;2022-09-28T00:46:09;99194.83;;;11.91;100.00
73679;BME280;61978;52.742;16.962;2022-09-28T00:48:36;99193.37;;;11.98;100.00
73679;BME280;61978;52.742;16.962;2022-09-28T00:51:12;99197.30;;;11.93;100.00
73679;BME280;61978;52.742;16.962;2022-09-28T00:53:42;99196.12;;;11.89;100.00
73679;BME280;61978;52.742;16.962;2022-09-28T00:56:13;99194.14;;;11.96;100.00
73679;BME280;61978;52.742;16.962;2022-09-28T00:58:47;99201.14;;;11.85;100.00
73679;BME280;61978;52.742;16.962;2022-09-28T01:01:16;99206.88;;;11.77;100.00
73679;BME280;61978;52.742;16.962;2022-09-28T01:03:46;99206.97;;;11.70;100.00
73679;BME280;61978;52.742;16.962;2022-09-28T01:06:23;99206.58;;;11.67;100.00
73679;BME280;61978;52.742;16.962;2022-09-28T01:08:56;99215.87;;;11.62;100.00
73679;BME280;61978;52.742;16.962;2022-09-28T01:11:24;99226.27;;;11.58;100.00
73679;BME280;61978;52.742;16.962;2022-09-28T01:13:53;99238.16;;;11.39;100.00
73679;BME280;61978;52.742;16.962;2022-09-28T01:16:54;99227.34;;;11.37;100.00
73679;BME280;61978;52.742;16.962;2022-09-28T01:24:59;99223.91;;;11.00;100.00
73679;BME280;61978;52.742;16.962;2022-09-28T01:27:33;99215.64;;;11.01;100.00
73679;BME280;61978;52.742;16.962;2022-09-28T01:30:14;99224.23;;;10.92;100.00
73679;BME280;61978;52.742;16.962;2022-09-28T01:33:07;99218.04;;;10.91;100.00
73679;BME280;61978;52.742;16.962;2022-09-28T01:38:08;99237.89;;;10.81;100.00
73679;BME280;61978;52.742;16.962;2022-09-28T01:40:34;99238.88;;;10.78;100.00
73679;BME280;61978;52.742;16.962;2022-09-28T01:43:11;99255.07;;;10.71;100.00
73679;BME280;61978;52.742;16.962;2022-09-28T01:45:53;99248.63;;;10.72;100.00
73679;BME280;61978;52.742;16.962;2022-09-28T01:48:20;99266.70;;;10.56;100.00
73679;BME280;61978;52.742;16.962;2022-09-28T01:50:44;99267.90;;;10.51;100.00
73679;BME280;61978;52.742;16.962;2022-09-28T01:53:19;99288.27;;;10.25;100.00
73679;BME280;61978;52.742;16.962;2022-09-28T01:55:44;99283.72;;;10.10;100.00
73679;BME280;61978;52.742;16.962;2022-09-28T02:00:55;99280.30;;;10.02;100.00
73679;BME280;61978;52.742;16.962;2022-09-28T02:03:28;99294.07;;;9.81;100.00
73679;BME280;61978;52.742;16.962;2022-09-28T02:06:02;99283.73;;;9.85;100.00
73679;BME280;61978;52.742;16.962;2022-09-28T02:08:45;99267.80;;;9.90;100.00
73679;BME280;61978;52.742;16.962;2022-09-28T02:11:18;99262.31;;;9.94;100.00
73679;BME280;61978;52.742;16.962;2022-09-28T02:14:03;99266.23;;;9.82;100.00
73679;BME280;61978;52.742;16.962;2022-09-28T02:16:41;99262.95;;;9.89;100.00
73679;BME280;61978;52.742;16.962;2022-09-28T02:19:15;99266.98;;;9.89;100.00
73679;BME280;61978;52.742;16.962;2022-09-28T02:21:45;99273.48;;;9.75;100.00
73679;BME280;61978;52.742;16.962;2022-09-28T02:27:15;99270.77;;;9.66;100.00
73679;BME280;61978;52.742;16.962;2022-09-28T02:29:38;99263.86;;;9.68;100.00
73679;BME280;61978;52.742;16.962;2022-09-28T02:32:05;99262.60;;;9.70;100.00
73679;BME280;61978;52.742;16.962;2022-09-28T02:34:32;99256.93;;;9.69;100.00
73679;BME280;61978;52.742;16.962;2022-09-28T02:36:59;99266.98;;;9.65;100.00
73679;BME280;61978;52.742;16.962;2022-09-28T02:39:26;99272.89;;;9.58;100.00
73679;BME280;61978;52.742;16.962;2022-09-28T02:44:48;99261.34;;;9.57;100.00
73679;BME280;61978;52.742;16.962;2022-09-28T02:47:24;99241.44;;;9.71;100.00
73679;BME280;61978;52.742;16.962;2022-09-28T02:52:54;99247.94;;;9.73;100.00
73679;BME280;61978;52.742;16.962;2022-09-28T02:58:34;99231.67;;;9.92;100.00
73679;BME280;61978;52.742;16.962;2022-09-28T03:06:29;99224.85;;;10.21;100.00
73679;BME280;61978;52.742;16.962;2022-09-28T03:09:03;99232.60;;;10.29;100.00
73679;BME280;61978;52.742;16.962;2022-09-28T03:11:44;99222.39;;;10.38;100.00
73679;BME280;61978;52.742;16.962;2022-09-28T03:14:11;99215.17;;;10.56;100.00
73679;BME280;61978;52.742;16.962;2022-09-28T03:16:52;99216.27;;;10.58;100.00
73679;BME280;61978;52.742;16.962;2022-09-28T03:19:22;99217.61;;;10.67;100.00
73679;BME280;61978;52.742;16.962;2022-09-28T03:21:50;99223.37;;;10.62;100.00
73679;BME280;61978;52.742;16.962;2022-09-28T03:24:17;99231.66;;;10.51;100.00
73679;BME280;61978;52.742;16.962;2022-09-28T03:26:44;99235.82;;;10.47;100.00
73679;BME280;61978;52.742;16.962;2022-09-28T03:29:13;99235.23;;;10.45;100.00
73679;BME280;61978;52.742;16.962;2022-09-28T03:31:40;99229.25;;;10.52;100.00
73679;BME280;61978;52.742;16.962;2022-09-28T03:34:08;99218.82;;;10.62;100.00
73679;BME280;61978;52.742;16.962;2022-09-28T03:36:34;99209.94;;;10.71;100.00
73679;BME280;61978;52.742;16.962;2022-09-28T03:39:04;99208.34;;;10.81;100.00
73679;BME280;61978;52.742;16.962;2022-09-28T03:41:32;99210.88;;;10.85;100.00
73679;BME280;61978;52.742;16.962;2022-09-28T03:44:00;99208.51;;;10.86;100.00
73679;BME280;61978;52.742;16.962;2022-09-28T03:46:27;99196.30;;;10.93;100.00
73679;BME280;61978;52.742;16.962;2022-09-28T03:48:56;99194.61;;;10.98;100.00
73679;BME280;61978;52.742;16.962;2022-09-28T03:51:28;99194.69;;;10.92;100.00
73679;BME280;61978;52.742;16.962;2022-09-28T03:53:55;99206.55;;;10.84;100.00
73679;BME280;61978;52.742;16.962;2022-09-28T03:56:22;99203.72;;;10.88;100.00
73679;BME280;61978;52.742;16.962;2022-09-28T03:58:49;99208.95;;;10.83;100.00
73679;BME280;61978;52.742;16.962;2022-09-28T04:01:19;99205.22;;;10.75;100.00
73679;BME280;61978;52.742;16.962;2022-09-28T04:03:51;99192.45;;;10.89;100.00
73679;BME280;61978;52.742;16.962;2022-09-28T04:06:17;99197.89;;;10.91;100.00
73679;BME280;61978;52.742;16.962;2022-09-28T04:08:45;99204.23;;;10.88;100.00
73679;BME280;61978;52.742;16.962;2022-09-28T04:11:12;99199.23;;;10.91;100.00
73679;BME280;61978;52.742;16.962;2022-09-28T04:13:41;99208.66;;;10.82;100.00
73679;BME280;61978;52.742;16.962;2022-09-28T04:16:11;99218.13;;;10.76;100.00
73679;BME280;61978;52.742;16.962;2022-09-28T04:18:40;99216.78;;;10.76;100.00
73679;BME280;61978;52.742;16.962;2022-09-28T04:21:16;99216.13;;;10.71;100.00
73679;BME280;61978;52.742;16.962;2022-09-28T04:23:45;99190.12;;;11.01;100.00
73679;BME280;61978;52.742;16.962;2022-09-28T04:26:22;99210.59;;;10.75;100.00
73679;BME280;61978;52.742;16.962;2022-09-28T04:28:47;99211.20;;;10.77;100.00
73679;BME280;61978;52.742;16.962;2022-09-28T04:31:46;99203.66;;;10.77;100.00
73679;BME280;61978;52.742;16.962;2022-09-28T04:34:16;99209.42;;;10.71;100.00
73679;BME280;61978;52.742;16.962;2022-09-28T04:36:45;99195.20;;;10.91;100.00
73679;BME280;61978;52.742;16.962;2022-09-28T04:39:13;99203.57;;;10.92;100.00
73679;BME280;61978;52.742;16.962;2022-09-28T04:41:46;99213.66;;;10.70;100.00
73679;BME280;61978;52.742;16.962;2022-09-28T04:44:14;99214.34;;;10.65;100.00
73679;BME280;61978;52.742;16.962;2022-09-28T04:46:41;99212.03;;;10.69;100.00
73679;BME280;61978;52.742;16.962;2022-09-28T04:49:25;99212.77;;;10.57;100.00
73679;BME280;61978;52.742;16.962;2022-09-28T04:51:53;99208.67;;;10.55;100.00
73679;BME280;61978;52.742;16.962;2022-09-28T04:54:19;99212.42;;;10.45;100.00
73679;BME280;61978;52.742;16.962;2022-09-28T04:56:47;99205.84;;;10.50;100.00
73679;BME280;61978;52.742;16.962;2022-09-28T04:59:14;99208.67;;;10.46;100.00
73679;BME280;61978;52.742;16.962;2022-09-28T05:01:42;99210.18;;;10.42;100.00
73679;BME280;61978;52.742;16.962;2022-09-28T05:04:18;99201.52;;;10.49;100.00
73679;BME280;61978;52.742;16.962;2022-09-28T05:06:52;99201.06;;;10.52;100.00
73679;BME280;61978;52.742;16.962;2022-09-28T05:09:19;99203.02;;;10.45;100.00
73679;BME280;61978;52.742;16.962;2022-09-28T05:11:49;99214.41;;;10.31;100.00
73679;BME280;61978;52.742;16.962;2022-09-28T05:14:21;99215.09;;;10.27;100.00
73679;BME280;61978;52.742;16.962;2022-09-28T05:16:51;99205.77;;;10.29;100.00
73679;BME280;61978;52.742;16.962;2022-09-28T05:19:22;99200.61;;;10.28;100.00
73679;BME280;61978;52.742;16.962;2022-09-28T05:21:51;99192.36;;;10.38;100.00
73679;BME280;61978;52.742;16.962;2022-09-28T05:24:17;99200.09;;;10.37;100.00
73679;BME280;61978;52.742;16.962;2022-09-28T05:26:45;99207.92;;;10.21;100.00
73679;BME280;61978;52.742;16.962;2022-09-28T05:29:13;99197.92;;;10.28;100.00
73679;BME280;61978;52.742;16.962;2022-09-28T05:31:58;99186.61;;;10.44;100.00
73679;BME280;61978;52.742;16.962;2022-09-28T05:34:39;99193.56;;;10.33;100.00
73679;BME280;61978;52.742;16.962;2022-09-28T05:37:08;99181.62;;;10.47;100.00
73679;BME280;61978;52.742;16.962;2022-09-28T05:39:35;99188.40;;;10.50;100.00
73679;BME280;61978;52.742;16.962;2022-09-28T05:42:03;99170.92;;;10.77;100.00
73679;BME280;61978;52.742;16.962;2022-09-28T05:44:30;99171.01;;;11.00;100.00
73679;BME280;61978;52.742;16.962;2022-09-28T05:46:57;99178.95;;;11.16;100.00
73679;BME280;61978;52.742;16.962;2022-09-28T05:49:24;99198.18;;;11.01;100.00
73679;BME280;61978;52.742;16.962;2022-09-28T05:51:53;99226.70;;;10.75;100.00
73679;BME280;61978;52.742;16.962;2022-09-28T05:54:20;99226.36;;;10.63;100.00
73679;BME280;61978;52.742;16.962;2022-09-28T05:56:49;99224.19;;;10.71;100.00
73679;BME280;61978;52.742;16.962;2022-09-28T05:59:16;99232.25;;;10.62;100.00
73679;BME280;61978;52.742;16.962;2022-09-28T06:01:44;99227.02;;;10.58;100.00
73679;BME280;61978;52.742;16.962;2022-09-28T06:04:12;99229.70;;;10.49;100.00
73679;BME280;61978;52.742;16.962;2022-09-28T06:06:41;99224.12;;;10.41;100.00
73679;BME280;61978;52.742;16.962;2022-09-28T06:09:09;99215.83;;;10.52;100.00
73679;BME280;61978;52.742;16.962;2022-09-28T06:11:51;99204.78;;;10.60;100.00
73679;BME280;61978;52.742;16.962;2022-09-28T06:14:33;99202.54;;;10.66;100.00
73679;BME280;61978;52.742;16.962;2022-09-28T06:16:59;99197.61;;;10.72;100.00
73679;BME280;61978;52.742;16.962;2022-09-28T06:19:27;99187.92;;;10.80;100.00
73679;BME280;61978;52.742;16.962;2022-09-28T06:22:12;99175.16;;;11.05;100.00
73679;BME280;61978;52.742;16.962;2022-09-28T06:24:41;99183.13;;;10.91;100.00
73679;BME280;61978;52.742;16.962;2022-09-28T06:27:08;99182.21;;;10.97;100.00
73679;BME280;61978;52.742;16.962;2022-09-28T06:29:36;99191.18;;;10.91;100.00
73679;BME280;61978;52.742;16.962;2022-09-28T06:32:03;99181.34;;;11.15;100.00
73679;BME280;61978;52.742;16.962;2022-09-28T06:34:30;99177.77;;;11.33;100.00
73679;BME280;61978;52.742;16.962;2022-09-28T06:36:57;99184.03;;;11.36;100.00
73679;BME280;61978;52.742;16.962;2022-09-28T06:39:25;99177.80;;;11.56;100.00
73679;BME280;61978;52.742;16.962;2022-09-28T06:41:54;99191.09;;;11.60;100.00
73679;BME280;61978;52.742;16.962;2022-09-28T06:44:20;99203.17;;;11.48;100.00
73679;BME280;61978;52.742;16.962;2022-09-28T06:47:04;99202.06;;;11.58;100.00
73679;BME280;61978;52.742;16.962;2022-09-28T06:49:42;99199.64;;;11.68;100.00
73679;BME280;61978;52.742;16.962;2022-09-28T06:52:28;99208.53;;;11.69;100.00
73679;BME280;61978;52.742;16.962;2022-09-28T06:55:08;99215.86;;;11.71;100.00
73679;BME280;61978;52.742;16.962;2022-09-28T06:57:40;99213.20;;;11.94;100.00
73679;BME280;61978;52.742;16.962;2022-09-28T07:00:10;99224.00;;;11.85;100.00
73679;BME280;61978;52.742;16.962;2022-09-28T07:02:38;99215.67;;;11.96;100.00
73679;BME280;61978;52.742;16.962;2022-09-28T07:05:11;99212.98;;;12.07;100.00
73679;BME280;61978;52.742;16.962;2022-09-28T07:07:56;99211.05;;;12.29;100.00
73679;BME280;61978;52.742;16.962;2022-09-28T07:10:26;99234.16;;;12.15;100.00
73679;BME280;61978;52.742;16.962;2022-09-28T07:13:04;99229.34;;;12.17;100.00
73679;BME280;61978;52.742;16.962;2022-09-28T07:15:35;99224.77;;;12.30;100.00
73679;BME280;61978;52.742;16.962;2022-09-28T07:18:04;99235.80;;;12.28;100.00
73679;BME280;61978;52.742;16.962;2022-09-28T07:20:33;99221.97;;;12.36;100.00
73679;BME280;61978;52.742;16.962;2022-09-28T07:23:03;99230.87;;;12.25;100.00
73679;BME280;61978;52.742;16.962;2022-09-28T07:25:33;99222.48;;;12.36;100.00
73679;BME280;61978;52.742;16.962;2022-09-28T07:28:06;99209.89;;;12.62;100.00
73679;BME280;61978;52.742;16.962;2022-09-28T07:30:42;99219.02;;;12.61;100.00
73679;BME280;61978;52.742;16.962;2022-09-28T07:33:15;99201.05;;;12.92;100.00
73679;BME280;61978;52.742;16.962;2022-09-28T07:35:52;99208.56;;;13.04;100.00
73679;BME280;61978;52.742;16.962;2022-09-28T07:38:20;99226.77;;;13.09;100.00
73679;BME280;61978;52.742;16.962;2022-09-28T07:40:52;99215.92;;;13.20;100.00
73679;BME280;61978;52.742;16.962;2022-09-28T07:43:40;99228.24;;;13.16;100.00
73679;BME280;61978;52.742;16.962;2022-09-28T07:46:07;99205.77;;;13.56;100.00
73679;BME280;61978;52.742;16.962;2022-09-28T07:48:39;99227.98;;;13.46;100.00
73679;BME280;61978;52.742;16.962;2022-09-28T07:51:12;99210.75;;;13.64;100.00
73679;BME280;61978;52.742;16.962;2022-09-28T07:53:41;99210.94;;;13.74;100.00
73679;BME280;61978;52.742;16.962;2022-09-28T07:56:22;99233.35;;;13.60;100.00
73679;BME280;61978;52.742;16.962;2022-09-28T07:58:54;99206.52;;;14.01;100.00
73679;BME280;61978;52.742;16.962;2022-09-28T08:01:22;99209.62;;;14.10;100.00
73679;BME280;61978;52.742;16.962;2022-09-28T08:03:50;99192.63;;;14.48;100.00
73679;BME280;61978;52.742;16.962;2022-09-28T08:06:19;99193.33;;;14.60;100.00
73679;BME280;61978;52.742;16.962;2022-09-28T08:08:46;99244.13;;;14.24;100.00
73679;BME280;61978;52.742;16.962;2022-09-28T08:11:16;99235.23;;;14.26;100.00
73679;BME280;61978;52.742;16.962;2022-09-28T08:13:46;99256.05;;;14.09;100.00
73679;BME280;61978;52.742;16.962;2022-09-28T08:16:21;99255.95;;;13.87;100.00
73679;BME280;61978;52.742;16.962;2022-09-28T08:19:06;99256.81;;;13.74;100.00
73679;BME280;61978;52.742;16.962;2022-09-28T08:21:32;99241.14;;;13.90;100.00
73679;BME280;61978;52.742;16.962;2022-09-28T08:24:13;99225.19;;;14.05;100.00
73679;BME280;61978;52.742;16.962;2022-09-28T08:26:40;99259.59;;;13.79;100.00
73679;BME280;61978;52.742;16.962;2022-09-28T08:29:11;99252.39;;;13.68;100.00
73679;BME280;61978;52.742;16.962;2022-09-28T08:31:48;99239.20;;;13.69;100.00
73679;BME280;61978;52.742;16.962;2022-09-28T08:34:17;99234.92;;;13.73;100.00
73679;BME280;61978;52.742;16.962;2022-09-28T08:36:56;99215.97;;;14.01;100.00
73679;BME280;61978;52.742;16.962;2022-09-28T08:39:42;99187.02;;;14.32;100.00
73679;BME280;61978;52.742;16.962;2022-09-28T08:45:27;99232.24;;;14.25;100.00
73679;BME280;61978;52.742;16.962;2022-09-28T08:48:21;99214.80;;;14.50;100.00
73679;BME280;61978;52.742;16.962;2022-09-28T08:51:52;99225.43;;;14.56;100.00
73679;BME280;61978;52.742;16.962;2022-09-28T08:57:00;99242.67;;;14.72;100.00
73679;BME280;61978;52.742;16.962;2022-09-28T08:59:41;99239.17;;;14.74;100.00
73679;BME280;61978;52.742;16.962;2022-09-28T09:02:13;99224.05;;;14.97;100.00
73679;BME280;61978;52.742;16.962;2022-09-28T09:04:37;99227.39;;;15.04;100.00
73679;BME280;61978;52.742;16.962;2022-09-28T09:10:13;99199.56;;;15.33;100.00
73679;BME280;61978;52.742;16.962;2022-09-28T09:15:49;99168.38;;;16.23;100.00
73679;BME280;61978;52.742;16.962;2022-09-28T09:18:36;99240.09;;;15.79;100.00
73679;BME280;61978;52.742;16.962;2022-09-28T09:21:51;99238.45;;;15.78;100.00
73679;BME280;61978;52.742;16.962;2022-09-28T09:23:55;99271.84;;;15.35;100.00
73679;BME280;61978;52.742;16.962;2022-09-28T09:26:38;99233.61;;;15.53;100.00
73679;BME280;61978;52.742;16.962;2022-09-28T09:37:48;99219.05;;;16.25;100.00
73679;BME280;61978;52.742;16.962;2022-09-28T09:40:28;99218.38;;;16.47;100.00
73679;BME280;61978;52.742;16.962;2022-09-28T09:48:44;99222.95;;;16.89;100.00
73679;BME280;61978;52.742;16.962;2022-09-28T09:51:14;99211.30;;;16.96;100.00
73679;BME280;61978;52.742;16.962;2022-09-28T09:53:47;99212.45;;;17.12;100.00
73679;BME280;61978;52.742;16.962;2022-09-28T09:56:29;99229.56;;;17.18;100.00
73679;BME280;61978;52.742;16.962;2022-09-28T09:58:58;99228.73;;;17.10;100.00
73679;BME280;61978;52.742;16.962;2022-09-28T10:01:36;99224.95;;;17.18;100.00
73679;BME280;61978;52.742;16.962;2022-09-28T10:04:31;99220.39;;;17.37;100.00
73679;BME280;61978;52.742;16.962;2022-09-28T10:07:08;99207.70;;;17.60;100.00
73679;BME280;61978;52.742;16.962;2022-09-28T10:09:42;99231.84;;;17.56;100.00
73679;BME280;61978;52.742;16.962;2022-09-28T10:12:16;99239.99;;;17.61;100.00
73679;BME280;61978;52.742;16.962;2022-09-28T10:14:45;99256.22;;;17.41;100.00
73679;BME280;61978;52.742;16.962;2022-09-28T10:17:17;99228.31;;;17.56;100.00
73679;BME280;61978;52.742;16.962;2022-09-28T10:19:54;99208.78;;;17.79;100.00
73679;BME280;61978;52.742;16.962;2022-09-28T10:22:40;99231.05;;;17.73;100.00
73679;BME280;61978;52.742;16.962;2022-09-28T10:25:12;99219.39;;;17.81;100.00
73679;BME280;61978;52.742;16.962;2022-09-28T10:27:42;99230.52;;;17.66;100.00
73679;BME280;61978;52.742;16.962;2022-09-28T10:30:21;99255.67;;;17.37;100.00
73679;BME280;61978;52.742;16.962;2022-09-28T10:32:55;99184.36;;;17.84;100.00
73679;BME280;61978;52.742;16.962;2022-09-28T10:35:28;99207.97;;;17.86;100.00
73679;BME280;61978;52.742;16.962;2022-09-28T10:38:04;99242.17;;;17.64;100.00
73679;BME280;61978;52.742;16.962;2022-09-28T10:40:44;99190.33;;;17.66;100.00
73679;BME280;61978;52.742;16.962;2022-09-28T10:43:30;99225.00;;;17.41;100.00
73679;BME280;61978;52.742;16.962;2022-09-28T10:46:08;99213.33;;;17.43;100.00
73679;BME280;61978;52.742;16.962;2022-09-28T10:51:49;99174.57;;;17.93;100.00
73679;BME280;61978;52.742;16.962;2022-09-28T10:54:30;99179.42;;;18.09;100.00
73679;BME280;61978;52.742;16.962;2022-09-28T10:57:01;99201.19;;;17.99;100.00
73679;BME280;61978;52.742;16.962;2022-09-28T10:59:42;99223.73;;;17.71;100.00
73679;BME280;61978;52.742;16.962;2022-09-28T11:02:27;99170.72;;;18.12;100.00
73679;BME280;61978;52.742;16.962;2022-09-28T11:04:59;99171.47;;;18.45;100.00
73679;BME280;61978;52.742;16.962;2022-09-28T11:07:30;99212.83;;;18.14;100.00
73679;BME280;61978;52.742;16.962;2022-09-28T11:09:59;99190.51;;;18.35;100.00
73679;BME280;61978;52.742;16.962;2022-09-28T11:12:35;99203.54;;;18.48;100.00
73679;BME280;61978;52.742;16.962;2022-09-28T11:15:05;99221.21;;;18.48;100.00
73679;BME280;61978;52.742;16.962;2022-09-28T11:17:35;99204.34;;;18.66;100.00
73679;BME280;61978;52.742;16.962;2022-09-28T11:25:57;99257.41;;;18.03;100.00
73679;BME280;61978;52.742;16.962;2022-09-28T11:28:34;99202.50;;;18.24;100.00
73679;BME280;61978;52.742;16.962;2022-09-28T11:31:05;99249.27;;;17.96;100.00
73679;BME280;61978;52.742;16.962;2022-09-28T11:33:44;99254.92;;;17.61;100.00
73679;BME280;61978;52.742;16.962;2022-09-28T11:44:41;99230.09;;;17.15;100.00
73679;BME280;61978;52.742;16.962;2022-09-28T11:47:44;99185.64;;;17.41;100.00
73679;BME280;61978;52.742;16.962;2022-09-28T11:50:21;99206.25;;;17.37;100.00
73679;BME280;61978;52.742;16.962;2022-09-28T11:53:03;99189.44;;;17.40;100.00
73679;BME280;61978;52.742;16.962;2022-09-28T11:55:37;99186.80;;;17.60;100.00
73679;BME280;61978;52.742;16.962;2022-09-28T11:58:13;99199.24;;;17.51;100.00
73679;BME280;61978;52.742;16.962;2022-09-28T12:00:43;99195.97;;;17.39;100.00
73679;BME280;61978;52.742;16.962;2022-09-28T12:03:17;99198.93;;;17.25;100.00
73679;BME280;61978;52.742;16.962;2022-09-28T12:08:50;99181.22;;;17.00;100.00
73679;BME280;61978;52.742;16.962;2022-09-28T12:11:23;99187.16;;;16.92;100.00
73679;BME280;61978;52.742;16.962;2022-09-28T12:14:05;99167.89;;;16.88;100.00
73679;BME280;61978;52.742;16.962;2022-09-28T12:16:43;99175.72;;;16.75;100.00
73679;BME280;61978;52.742;16.962;2022-09-28T12:19:31;99135.59;;;16.82;100.00
73679;BME280;61978;52.742;16.962;2022-09-28T12:22:00;99145.90;;;16.77;100.00
73679;BME280;61978;52.742;16.962;2022-09-28T12:24:30;99145.03;;;16.66;100.00
73679;BME280;61978;52.742;16.962;2022-09-28T12:27:03;99148.80;;;16.60;100.00
73679;BME280;61978;52.742;16.962;2022-09-28T12:29:45;99153.88;;;16.47;100.00
73679;BME280;61978;52.742;16.962;2022-09-28T12:32:34;99130.60;;;16.53;100.00
73679;BME280;61978;52.742;16.962;2022-09-28T12:35:11;99121.89;;;16.51;100.00
73679;BME280;61978;52.742;16.962;2022-09-28T12:37:54;99123.71;;;16.33;100.00
73679;BME280;61978;52.742;16.962;2022-09-28T12:40:23;99129.61;;;16.15;100.00
73679;BME280;61978;52.742;16.962;2022-09-28T12:48:27;99053.24;;;16.23;100.00
73679;BME280;61978;52.742;16.962;2022-09-28T12:56:19;99039.17;;;16.31;100.00
73679;BME280;61978;52.742;16.962;2022-09-28T13:01:48;98997.22;;;16.51;100.00
73679;BME280;61978;52.742;16.962;2022-09-28T13:07:02;99007.81;;;16.50;100.00
73679;BME280;61978;52.742;16.962;2022-09-28T13:09:35;98985.91;;;16.62;100.00
73679;BME280;61978;52.742;16.962;2022-09-28T13:17:29;99003.80;;;16.76;100.00
73679;BME280;61978;52.742;16.962;2022-09-28T13:23:03;99029.53;;;16.60;100.00
73679;BME280;61978;52.742;16.962;2022-09-28T13:25:27;99054.71;;;16.53;100.00
73679;BME280;61978;52.742;16.962;2022-09-28T13:28:01;99021.14;;;16.70;100.00
73679;BME280;61978;52.742;16.962;2022-09-28T13:30:30;99034.70;;;16.67;100.00
73679;BME280;61978;52.742;16.962;2022-09-28T13:33:01;99047.44;;;16.64;100.00
73679;BME280;61978;52.742;16.962;2022-09-28T13:35:29;99043.37;;;16.66;100.00
73679;BME280;61978;52.742;16.962;2022-09-28T13:41:08;99056.63;;;16.55;100.00
73679;BME280;61978;52.742;16.962;2022-09-28T13:43:56;99052.56;;;16.55;100.00
73679;BME280;61978;52.742;16.962;2022-09-28T13:49:20;99076.88;;;16.45;100.00
73679;BME280;61978;52.742;16.962;2022-09-28T13:52:02;99062.63;;;16.62;100.00
73679;BME280;61978;52.742;16.962;2022-09-28T13:57:51;99129.19;;;16.43;100.00
73679;BME280;61978;52.742;16.962;2022-09-28T14:03:11;99092.74;;;16.79;100.00
73679;BME280;61978;52.742;16.962;2022-09-28T14:08:28;99126.38;;;16.78;100.00
73679;BME280;61978;52.742;16.962;2022-09-28T14:10:57;99100.09;;;16.91;100.00
73679;BME280;61978;52.742;16.962;2022-09-28T14:16:29;99172.53;;;16.38;100.00
73679;BME280;61978;52.742;16.962;2022-09-28T14:19:01;99241.59;;;15.40;100.00
73679;BME280;61978;52.742;16.962;2022-09-28T14:22:19;99192.23;;;15.04;100.00
73679;BME280;61978;52.742;16.962;2022-09-28T14:32:40;99071.98;;;14.15;100.00
73679;BME280;61978;52.742;16.962;2022-09-28T14:35:23;98993.31;;;14.06;100.00
73679;BME280;61978;52.742;16.962;2022-09-28T14:37:48;98934.25;;;13.88;100.00
73679;BME280;61978;52.742;16.962;2022-09-28T14:40:56;98880.67;;;13.51;100.00
73679;BME280;61978;52.742;16.962;2022-09-28T14:48:51;98659.32;;;13.06;100.00
73679;BME280;61978;52.742;16.962;2022-09-28T14:56:28;98524.22;;;12.71;100.00
73679;BME280;61978;52.742;16.962;2022-09-28T14:58:57;98483.83;;;13.00;100.00
73679;BME280;61978;52.742;16.962;2022-09-28T15:01:24;98457.94;;;12.99;100.00
73679;BME280;61978;52.742;16.962;2022-09-28T15:03:54;98449.47;;;13.17;100.00
73679;BME280;61978;52.742;16.962;2022-09-28T15:06:23;98456.96;;;13.10;100.00
73679;BME280;61978;52.742;16.962;2022-09-28T15:08:50;98443.37;;;13.32;100.00
73679;BME280;61978;52.742;16.962;2022-09-28T15:11:23;98462.86;;;13.47;100.00
73679;BME280;61978;52.742;16.962;2022-09-28T15:13:51;98503.11;;;13.19;100.00
73679;BME280;61978;52.742;16.962;2022-09-28T15:16:24;98539.50;;;12.63;100.00
73679;BME280;61978;52.742;16.962;2022-09-28T15:19:27;98531.17;;;12.38;100.00
73679;BME280;61978;52.742;16.962;2022-09-28T15:21:53;98562.45;;;12.00;100.00
73679;BME280;61978;52.742;16.962;2022-09-28T15:24:34;98567.05;;;11.81;100.00
73679;BME280;61978;52.742;16.962;2022-09-28T15:27:09;98579.84;;;11.74;100.00